Val-d'Or Airport
CYVO : rendu visible

Aérodrome :











RETROUVEZ-NOUS SUR...

 
LOGIN :

S'inscrire | Disclaimer

   EN    FR    IT 

 









Légende :    VFR   VFR Marginal   IFR   IFR Intensif   IFR Très Intensif
Visi : 
Plafond : 
>= 8 km
>= 3000ft
5 à 8 km
1000 à 3000 ft
1500m à 5 km
500 à 1000 ft
800 à 1500m
200 à 500 ft
< 800m
< 200 ft
Symboles :   Orages  Brouillard  Fortes neiges  Fortes précipitations  Vent > 20 kt






- Altitude de l'aérodrome : 1107 ft
- Code IATA : YVO


CYVO - Val-d'Or

DERNIER METAR :
  • 250400Z AUTO 09004KT 9SM BKN090 OVC120 M06/M07 A3018 RMK SLP248

METARs EXPIRÉS :
  • 250300Z 08003KT 15SM SCT100 BKN120 M07/M07 A3020 RMK AC3AC2 LAST STFD OBS/NEXT 251100UTC SLP254
  • 250200Z 06003KT 15SM BKN130 M07/M07 A3022 RMK AC7 SLP262

TAF TAF CYVO
Valide du 25 à 00h jusqu'au 25 à 12h UTC


242339Z 2500/2512 07005KT P6SM SCT070
TEMPO 2500/2509 BKN070
BECMG 2500/2502 12008KT
FM250900 14010KT P6SM SCT015 OVC060
TEMPO 2509/2512 OVC015
PROB40 2509/2512 3SM -FZRA BR OVC010 RMK NXT FCST BY 250600Z



MET'MAP, la Météo Aéronautique d'un coup d'oeil ! - Copyright ORBIFLY Décembre 2007 - Disclaimer

ORBIFLY MET'MAP TEAM :

Programmation & Développement : Alexandra Zaïnal
Sur une idée originale de : Baudouin d'Aumeries
Assistance à la programmation : Marc-Olivier Méhu
Soutien technique & logistique : Manuel Goepfert

Contact : metmap@orbifly.com




SOURCES & CREDITS :

   NOAA       Earth
Advisory